sensor_id;sensor_type;location;lat;lon;timestamp;P1;durP1;ratioP1;P2;durP2;ratioP2
55134;SDS011;41031;44.750;11.308;2022-08-21T00:01:42;3.83;;;3.00;;
55134;SDS011;41031;44.750;11.308;2022-08-21T00:04:10;3.43;;;3.07;;
55134;SDS011;41031;44.750;11.308;2022-08-21T00:06:46;6.33;;;3.53;;
55134;SDS011;41031;44.750;11.308;2022-08-21T00:09:13;6.03;;;3.00;;
55134;SDS011;41031;44.750;11.308;2022-08-21T00:11:40;8.00;;;3.90;;
55134;SDS011;41031;44.750;11.308;2022-08-21T00:14:08;3.80;;;3.40;;
55134;SDS011;41031;44.750;11.308;2022-08-21T00:16:36;5.87;;;4.17;;
55134;SDS011;41031;44.750;11.308;2022-08-21T00:19:03;6.93;;;3.43;;
55134;SDS011;41031;44.750;11.308;2022-08-21T00:21:32;4.93;;;4.03;;
55134;SDS011;41031;44.750;11.308;2022-08-21T00:24:01;8.27;;;3.57;;
55134;SDS011;41031;44.750;11.308;2022-08-21T00:26:28;5.70;;;3.93;;
55134;SDS011;41031;44.750;11.308;2022-08-21T00:28:56;5.33;;;3.87;;
55134;SDS011;41031;44.750;11.308;2022-08-21T00:31:24;4.57;;;3.50;;
55134;SDS011;41031;44.750;11.308;2022-08-21T00:33:51;5.77;;;3.57;;
55134;SDS011;41031;44.750;11.308;2022-08-21T00:36:26;4.70;;;3.97;;
55134;SDS011;41031;44.750;11.308;2022-08-21T00:38:54;4.40;;;3.93;;
55134;SDS011;41031;44.750;11.308;2022-08-21T00:41:21;3.60;;;3.00;;
55134;SDS011;41031;44.750;11.308;2022-08-21T00:44:05;4.80;;;3.30;;
55134;SDS011;41031;44.750;11.308;2022-08-21T00:46:34;3.70;;;3.40;;
55134;SDS011;41031;44.750;11.308;2022-08-21T00:49:02;3.80;;;2.87;;
55134;SDS011;41031;44.750;11.308;2022-08-21T00:51:42;3.83;;;3.43;;
55134;SDS011;41031;44.750;11.308;2022-08-21T00:54:13;4.73;;;3.23;;
55134;SDS011;41031;44.750;11.308;2022-08-21T00:56:45;5.27;;;2.97;;
55134;SDS011;41031;44.750;11.308;2022-08-21T00:59:15;2.77;;;2.50;;
55134;SDS011;41031;44.750;11.308;2022-08-21T01:01:44;2.77;;;2.57;;
55134;SDS011;41031;44.750;11.308;2022-08-21T01:04:12;5.80;;;2.60;;
55134;SDS011;41031;44.750;11.308;2022-08-21T01:06:39;4.53;;;1.80;;
55134;SDS011;41031;44.750;11.308;2022-08-21T01:09:06;3.43;;;2.17;;
55134;SDS011;41031;44.750;11.308;2022-08-21T01:11:34;5.00;;;2.40;;
55134;SDS011;41031;44.750;11.308;2022-08-21T01:14:02;2.80;;;2.13;;
55134;SDS011;41031;44.750;11.308;2022-08-21T01:16:29;8.90;;;2.50;;
55134;SDS011;41031;44.750;11.308;2022-08-21T01:18:57;6.80;;;2.23;;
55134;SDS011;41031;44.750;11.308;2022-08-21T01:21:25;5.00;;;2.20;;
55134;SDS011;41031;44.750;11.308;2022-08-21T01:23:54;8.17;;;2.10;;
55134;SDS011;41031;44.750;11.308;2022-08-21T01:26:24;2.43;;;1.63;;
55134;SDS011;41031;44.750;11.308;2022-08-21T01:31:36;2.90;;;2.10;;
55134;SDS011;41031;44.750;11.308;2022-08-21T01:34:03;2.70;;;1.70;;
55134;SDS011;41031;44.750;11.308;2022-08-21T01:36:31;3.53;;;1.70;;
55134;SDS011;41031;44.750;11.308;2022-08-21T01:39:00;5.27;;;2.10;;
55134;SDS011;41031;44.750;11.308;2022-08-21T01:41:27;5.87;;;1.97;;
55134;SDS011;41031;44.750;11.308;2022-08-21T01:43:54;3.67;;;2.00;;
55134;SDS011;41031;44.750;11.308;2022-08-21T01:46:21;2.30;;;1.77;;
55134;SDS011;41031;44.750;11.308;2022-08-21T01:48:48;6.33;;;1.83;;
55134;SDS011;41031;44.750;11.308;2022-08-21T01:51:15;4.27;;;2.33;;
55134;SDS011;41031;44.750;11.308;2022-08-21T01:53:42;3.87;;;2.00;;
55134;SDS011;41031;44.750;11.308;2022-08-21T01:56:11;2.97;;;2.00;;
55134;SDS011;41031;44.750;11.308;2022-08-21T01:58:41;4.20;;;2.20;;
55134;SDS011;41031;44.750;11.308;2022-08-21T02:01:09;2.53;;;1.93;;
55134;SDS011;41031;44.750;11.308;2022-08-21T02:03:37;5.23;;;2.10;;
55134;SDS011;41031;44.750;11.308;2022-08-21T02:06:06;3.30;;;1.80;;
55134;SDS011;41031;44.750;11.308;2022-08-21T02:08:33;3.37;;;2.10;;
55134;SDS011;41031;44.750;11.308;2022-08-21T02:11:01;2.13;;;1.93;;
55134;SDS011;41031;44.750;11.308;2022-08-21T02:13:28;2.97;;;2.20;;
55134;SDS011;41031;44.750;11.308;2022-08-21T02:15:55;2.43;;;2.23;;
55134;SDS011;41031;44.750;11.308;2022-08-21T02:18:22;2.93;;;2.10;;
55134;SDS011;41031;44.750;11.308;2022-08-21T02:20:49;2.50;;;2.17;;
55134;SDS011;41031;44.750;11.308;2022-08-21T02:23:21;2.00;;;1.80;;
55134;SDS011;41031;44.750;11.308;2022-08-21T02:25:52;5.50;;;2.10;;
55134;SDS011;41031;44.750;11.308;2022-08-21T02:28:20;5.30;;;2.60;;
55134;SDS011;41031;44.750;11.308;2022-08-21T02:30:48;10.20;;;1.90;;
55134;SDS011;41031;44.750;11.308;2022-08-21T02:33:16;3.30;;;1.90;;
55134;SDS011;41031;44.750;11.308;2022-08-21T02:35:44;3.97;;;2.20;;
55134;SDS011;41031;44.750;11.308;2022-08-21T02:38:13;3.77;;;2.33;;
55134;SDS011;41031;44.750;11.308;2022-08-21T02:40:44;4.57;;;2.17;;
55134;SDS011;41031;44.750;11.308;2022-08-21T02:43:17;2.77;;;2.20;;
55134;SDS011;41031;44.750;11.308;2022-08-21T02:45:45;5.27;;;2.40;;
55134;SDS011;41031;44.750;11.308;2022-08-21T02:48:16;2.83;;;2.07;;
55134;SDS011;41031;44.750;11.308;2022-08-21T02:50:51;3.03;;;2.50;;
55134;SDS011;41031;44.750;11.308;2022-08-21T02:53:19;4.40;;;1.77;;
55134;SDS011;41031;44.750;11.308;2022-08-21T02:55:47;3.53;;;2.50;;
55134;SDS011;41031;44.750;11.308;2022-08-21T02:58:22;3.30;;;2.20;;
55134;SDS011;41031;44.750;11.308;2022-08-21T03:00:51;2.90;;;2.10;;
55134;SDS011;41031;44.750;11.308;2022-08-21T03:03:19;3.97;;;2.60;;
55134;SDS011;41031;44.750;11.308;2022-08-21T03:05:47;6.37;;;2.53;;
55134;SDS011;41031;44.750;11.308;2022-08-21T03:08:15;3.27;;;1.97;;
55134;SDS011;41031;44.750;11.308;2022-08-21T03:10:45;4.77;;;2.70;;
55134;SDS011;41031;44.750;11.308;2022-08-21T03:13:14;3.17;;;2.30;;
55134;SDS011;41031;44.750;11.308;2022-08-21T03:15:42;3.53;;;3.23;;
55134;SDS011;41031;44.750;11.308;2022-08-21T03:18:10;3.67;;;2.13;;
55134;SDS011;41031;44.750;11.308;2022-08-21T03:20:39;2.77;;;2.43;;
55134;SDS011;41031;44.750;11.308;2022-08-21T03:23:08;2.97;;;2.67;;
55134;SDS011;41031;44.750;11.308;2022-08-21T03:25:39;4.07;;;2.40;;
55134;SDS011;41031;44.750;11.308;2022-08-21T03:28:09;6.10;;;2.83;;
55134;SDS011;41031;44.750;11.308;2022-08-21T03:30:40;3.43;;;3.13;;
55134;SDS011;41031;44.750;11.308;2022-08-21T03:33:08;4.87;;;2.37;;
55134;SDS011;41031;44.750;11.308;2022-08-21T03:35:41;2.97;;;2.70;;
55134;SDS011;41031;44.750;11.308;2022-08-21T03:38:10;3.70;;;2.53;;
55134;SDS011;41031;44.750;11.308;2022-08-21T03:40:40;4.70;;;2.93;;
55134;SDS011;41031;44.750;11.308;2022-08-21T03:43:10;6.60;;;2.63;;
55134;SDS011;41031;44.750;11.308;2022-08-21T03:45:38;5.60;;;3.37;;
55134;SDS011;41031;44.750;11.308;2022-08-21T03:48:06;5.27;;;3.00;;
55134;SDS011;41031;44.750;11.308;2022-08-21T03:50:35;4.67;;;3.43;;
55134;SDS011;41031;44.750;11.308;2022-08-21T03:53:06;6.30;;;4.07;;
55134;SDS011;41031;44.750;11.308;2022-08-21T03:55:46;6.40;;;3.13;;
55134;SDS011;41031;44.750;11.308;2022-08-21T03:58:15;4.07;;;3.07;;
55134;SDS011;41031;44.750;11.308;2022-08-21T04:00:44;3.53;;;3.23;;
55134;SDS011;41031;44.750;11.308;2022-08-21T04:03:13;7.07;;;3.83;;
55134;SDS011;41031;44.750;11.308;2022-08-21T04:05:40;4.30;;;3.90;;
55134;SDS011;41031;44.750;11.308;2022-08-21T04:08:08;5.20;;;3.20;;
55134;SDS011;41031;44.750;11.308;2022-08-21T04:10:36;3.97;;;3.57;;
55134;SDS011;41031;44.750;11.308;2022-08-21T04:13:05;4.97;;;3.80;;
55134;SDS011;41031;44.750;11.308;2022-08-21T04:15:33;6.93;;;4.40;;
55134;SDS011;41031;44.750;11.308;2022-08-21T04:18:01;5.07;;;4.00;;
55134;SDS011;41031;44.750;11.308;2022-08-21T04:20:29;5.27;;;3.80;;
55134;SDS011;41031;44.750;11.308;2022-08-21T04:22:56;4.87;;;4.47;;
55134;SDS011;41031;44.750;11.308;2022-08-21T04:25:23;5.90;;;4.27;;
55134;SDS011;41031;44.750;11.308;2022-08-21T04:27:53;9.20;;;4.17;;
55134;SDS011;41031;44.750;11.308;2022-08-21T04:30:21;5.00;;;4.30;;
55134;SDS011;41031;44.750;11.308;2022-08-21T04:32:54;4.30;;;3.90;;
55134;SDS011;41031;44.750;11.308;2022-08-21T04:35:24;7.43;;;4.13;;
55134;SDS011;41031;44.750;11.308;2022-08-21T04:37:52;7.90;;;4.00;;
55134;SDS011;41031;44.750;11.308;2022-08-21T04:40:20;6.43;;;3.93;;
55134;SDS011;41031;44.750;11.308;2022-08-21T04:42:50;6.70;;;4.57;;
55134;SDS011;41031;44.750;11.308;2022-08-21T04:45:25;5.63;;;4.20;;
55134;SDS011;41031;44.750;11.308;2022-08-21T04:47:57;4.50;;;4.10;;
55134;SDS011;41031;44.750;11.308;2022-08-21T04:53:12;7.47;;;5.53;;
55134;SDS011;41031;44.750;11.308;2022-08-21T04:55:44;7.97;;;5.33;;
55134;SDS011;41031;44.750;11.308;2022-08-21T04:58:13;6.50;;;5.30;;
55134;SDS011;41031;44.750;11.308;2022-08-21T05:00:43;5.17;;;4.63;;
55134;SDS011;41031;44.750;11.308;2022-08-21T05:03:12;6.30;;;4.90;;
55134;SDS011;41031;44.750;11.308;2022-08-21T05:05:41;8.20;;;5.17;;
55134;SDS011;41031;44.750;11.308;2022-08-21T05:08:09;7.73;;;5.57;;
55134;SDS011;41031;44.750;11.308;2022-08-21T05:10:41;6.70;;;5.40;;
55134;SDS011;41031;44.750;11.308;2022-08-21T05:13:11;6.07;;;4.77;;
55134;SDS011;41031;44.750;11.308;2022-08-21T05:15:39;6.63;;;5.93;;
55134;SDS011;41031;44.750;11.308;2022-08-21T05:18:06;6.00;;;5.40;;
55134;SDS011;41031;44.750;11.308;2022-08-21T05:20:34;8.47;;;5.23;;
55134;SDS011;41031;44.750;11.308;2022-08-21T05:23:05;6.73;;;5.50;;
55134;SDS011;41031;44.750;11.308;2022-08-21T05:25:37;8.37;;;4.67;;
55134;SDS011;41031;44.750;11.308;2022-08-21T05:28:04;7.80;;;5.57;;
55134;SDS011;41031;44.750;11.308;2022-08-21T05:30:33;6.30;;;5.33;;
55134;SDS011;41031;44.750;11.308;2022-08-21T05:33:02;8.40;;;5.37;;
55134;SDS011;41031;44.750;11.308;2022-08-21T05:35:30;8.10;;;5.30;;
55134;SDS011;41031;44.750;11.308;2022-08-21T05:37:59;5.60;;;5.10;;
55134;SDS011;41031;44.750;11.308;2022-08-21T05:40:27;6.93;;;5.23;;
55134;SDS011;41031;44.750;11.308;2022-08-21T05:42:55;11.03;;;5.63;;
55134;SDS011;41031;44.750;11.308;2022-08-21T05:45:23;6.10;;;5.50;;
55134;SDS011;41031;44.750;11.308;2022-08-21T05:48:16;6.77;;;5.40;;
55134;SDS011;41031;44.750;11.308;2022-08-21T05:50:46;5.97;;;5.47;;
55134;SDS011;41031;44.750;11.308;2022-08-21T05:53:16;8.30;;;6.23;;
55134;SDS011;41031;44.750;11.308;2022-08-21T05:55:44;7.47;;;5.13;;
55134;SDS011;41031;44.750;11.308;2022-08-21T05:58:17;6.50;;;5.20;;
55134;SDS011;41031;44.750;11.308;2022-08-21T06:00:46;5.73;;;5.23;;
55134;SDS011;41031;44.750;11.308;2022-08-21T06:03:18;10.97;;;6.90;;
55134;SDS011;41031;44.750;11.308;2022-08-21T06:05:50;6.13;;;5.53;;
55134;SDS011;41031;44.750;11.308;2022-08-21T06:08:17;6.37;;;5.77;;
55134;SDS011;41031;44.750;11.308;2022-08-21T06:10:46;11.03;;;6.70;;
55134;SDS011;41031;44.750;11.308;2022-08-21T06:13:14;8.60;;;6.33;;
55134;SDS011;41031;44.750;11.308;2022-08-21T06:15:42;6.67;;;5.57;;
55134;SDS011;41031;44.750;11.308;2022-08-21T06:18:10;7.57;;;6.47;;
55134;SDS011;41031;44.750;11.308;2022-08-21T06:20:39;7.57;;;6.77;;
55134;SDS011;41031;44.750;11.308;2022-08-21T06:23:07;6.97;;;6.17;;
55134;SDS011;41031;44.750;11.308;2022-08-21T06:25:34;6.60;;;6.00;;
55134;SDS011;41031;44.750;11.308;2022-08-21T06:28:03;6.80;;;6.13;;
55134;SDS011;41031;44.750;11.308;2022-08-21T06:30:32;6.43;;;5.83;;
55134;SDS011;41031;44.750;11.308;2022-08-21T06:32:59;8.80;;;6.17;;
55134;SDS011;41031;44.750;11.308;2022-08-21T06:35:28;8.93;;;5.20;;
55134;SDS011;41031;44.750;11.308;2022-08-21T06:37:56;9.23;;;6.00;;
55134;SDS011;41031;44.750;11.308;2022-08-21T06:40:24;5.40;;;5.00;;
55134;SDS011;41031;44.750;11.308;2022-08-21T06:42:56;6.83;;;5.20;;
55134;SDS011;41031;44.750;11.308;2022-08-21T06:45:26;8.03;;;5.47;;
55134;SDS011;41031;44.750;11.308;2022-08-21T06:47:58;7.03;;;5.50;;
55134;SDS011;41031;44.750;11.308;2022-08-21T06:50:25;6.20;;;4.73;;
55134;SDS011;41031;44.750;11.308;2022-08-21T06:53:00;5.97;;;5.37;;
55134;SDS011;41031;44.750;11.308;2022-08-21T06:55:36;4.70;;;4.20;;
55134;SDS011;41031;44.750;11.308;2022-08-21T06:58:04;6.57;;;5.23;;
55134;SDS011;41031;44.750;11.308;2022-08-21T07:00:32;6.43;;;5.17;;
55134;SDS011;41031;44.750;11.308;2022-08-21T07:02:59;5.53;;;4.67;;
55134;SDS011;41031;44.750;11.308;2022-08-21T07:05:27;7.40;;;5.33;;
55134;SDS011;41031;44.750;11.308;2022-08-21T07:07:55;6.97;;;5.00;;
55134;SDS011;41031;44.750;11.308;2022-08-21T07:10:24;6.87;;;5.47;;
55134;SDS011;41031;44.750;11.308;2022-08-21T07:12:53;6.17;;;5.57;;
55134;SDS011;41031;44.750;11.308;2022-08-21T07:15:29;5.80;;;5.20;;
55134;SDS011;41031;44.750;11.308;2022-08-21T07:17:58;7.33;;;4.93;;
55134;SDS011;41031;44.750;11.308;2022-08-21T07:20:26;5.90;;;5.30;;
55134;SDS011;41031;44.750;11.308;2022-08-21T07:22:55;30.60;;;7.47;;
55134;SDS011;41031;44.750;11.308;2022-08-21T07:25:26;6.37;;;5.83;;
55134;SDS011;41031;44.750;11.308;2022-08-21T07:27:53;6.23;;;5.63;;
55134;SDS011;41031;44.750;11.308;2022-08-21T07:30:21;8.47;;;5.23;;
55134;SDS011;41031;44.750;11.308;2022-08-21T07:32:49;7.03;;;6.00;;
55134;SDS011;41031;44.750;11.308;2022-08-21T07:35:17;6.27;;;5.67;;
55134;SDS011;41031;44.750;11.308;2022-08-21T07:37:48;5.73;;;5.23;;
55134;SDS011;41031;44.750;11.308;2022-08-21T07:40:16;6.63;;;5.93;;
55134;SDS011;41031;44.750;11.308;2022-08-21T07:42:44;7.00;;;6.30;;
55134;SDS011;41031;44.750;11.308;2022-08-21T07:45:13;6.80;;;6.20;;
55134;SDS011;41031;44.750;11.308;2022-08-21T07:47:41;7.23;;;6.53;;
55134;SDS011;41031;44.750;11.308;2022-08-21T07:50:09;8.23;;;6.83;;
55134;SDS011;41031;44.750;11.308;2022-08-21T07:52:38;8.20;;;7.30;;
55134;SDS011;41031;44.750;11.308;2022-08-21T07:55:07;9.73;;;7.23;;
55134;SDS011;41031;44.750;11.308;2022-08-21T07:57:35;9.70;;;7.00;;
55134;SDS011;41031;44.750;11.308;2022-08-21T08:00:04;7.37;;;6.77;;
55134;SDS011;41031;44.750;11.308;2022-08-21T08:02:37;8.67;;;6.73;;
55134;SDS011;41031;44.750;11.308;2022-08-21T08:05:06;7.20;;;6.50;;
55134;SDS011;41031;44.750;11.308;2022-08-21T08:07:37;9.73;;;6.87;;
55134;SDS011;41031;44.750;11.308;2022-08-21T08:10:05;7.70;;;7.00;;
55134;SDS011;41031;44.750;11.308;2022-08-21T08:12:34;7.87;;;7.07;;
55134;SDS011;41031;44.750;11.308;2022-08-21T08:15:02;7.60;;;6.83;;
55134;SDS011;41031;44.750;11.308;2022-08-21T08:17:31;7.33;;;6.63;;
55134;SDS011;41031;44.750;11.308;2022-08-21T08:19:58;7.40;;;6.70;;
55134;SDS011;41031;44.750;11.308;2022-08-21T08:22:29;8.30;;;6.23;;
55134;SDS011;41031;44.750;11.308;2022-08-21T08:24:56;7.90;;;7.20;;
55134;SDS011;41031;44.750;11.308;2022-08-21T08:27:23;7.50;;;6.73;;
55134;SDS011;41031;44.750;11.308;2022-08-21T08:29:50;7.63;;;6.93;;
55134;SDS011;41031;44.750;11.308;2022-08-21T08:32:17;8.30;;;7.50;;
55134;SDS011;41031;44.750;11.308;2022-08-21T08:34:45;11.43;;;6.93;;
55134;SDS011;41031;44.750;11.308;2022-08-21T08:37:13;11.43;;;7.37;;
55134;SDS011;41031;44.750;11.308;2022-08-21T08:39:41;6.70;;;6.10;;
55134;SDS011;41031;44.750;11.308;2022-08-21T08:42:11;6.93;;;6.23;;
55134;SDS011;41031;44.750;11.308;2022-08-21T08:45:03;8.93;;;5.43;;
55134;SDS011;41031;44.750;11.308;2022-08-21T08:47:34;6.40;;;5.80;;
55134;SDS011;41031;44.750;11.308;2022-08-21T08:52:37;6.10;;;5.50;;
55134;SDS011;41031;44.750;11.308;2022-08-21T08:57:44;9.43;;;6.03;;
55134;SDS011;41031;44.750;11.308;2022-08-21T09:00:16;6.47;;;5.87;;
55134;SDS011;41031;44.750;11.308;2022-08-21T09:02:47;6.47;;;5.87;;
55134;SDS011;41031;44.750;11.308;2022-08-21T09:05:22;6.30;;;5.77;;
55134;SDS011;41031;44.750;11.308;2022-08-21T09:07:54;7.77;;;6.97;;
55134;SDS011;41031;44.750;11.308;2022-08-21T09:13:38;7.77;;;6.03;;
55134;SDS011;41031;44.750;11.308;2022-08-21T09:16:23;9.87;;;6.47;;
55134;SDS011;41031;44.750;11.308;2022-08-21T09:24:45;5.60;;;5.13;;
55134;SDS011;41031;44.750;11.308;2022-08-21T09:27:34;6.80;;;5.83;;
55134;SDS011;41031;44.750;11.308;2022-08-21T09:30:04;5.33;;;4.80;;
55134;SDS011;41031;44.750;11.308;2022-08-21T09:32:34;9.23;;;5.73;;
55134;SDS011;41031;44.750;11.308;2022-08-21T09:45:38;5.50;;;4.93;;
55134;SDS011;41031;44.750;11.308;2022-08-21T09:48:12;6.97;;;5.10;;
55134;SDS011;41031;44.750;11.308;2022-08-21T09:50:47;7.27;;;6.60;;
55134;SDS011;41031;44.750;11.308;2022-08-21T09:53:26;5.93;;;5.40;;
55134;SDS011;41031;44.750;11.308;2022-08-21T09:56:04;6.53;;;4.83;;
55134;SDS011;41031;44.750;11.308;2022-08-21T10:01:46;7.13;;;5.33;;
55134;SDS011;41031;44.750;11.308;2022-08-21T10:04:19;7.13;;;4.83;;
55134;SDS011;41031;44.750;11.308;2022-08-21T10:06:48;6.43;;;5.37;;
55134;SDS011;41031;44.750;11.308;2022-08-21T10:09:17;7.17;;;4.40;;
55134;SDS011;41031;44.750;11.308;2022-08-21T10:12:30;7.93;;;4.27;;
55134;SDS011;41031;44.750;11.308;2022-08-21T10:15:11;5.53;;;5.03;;
55134;SDS011;41031;44.750;11.308;2022-08-21T10:20:33;4.87;;;4.47;;
55134;SDS011;41031;44.750;11.308;2022-08-21T10:23:26;4.10;;;3.70;;
55134;SDS011;41031;44.750;11.308;2022-08-21T10:26:05;4.80;;;2.90;;
55134;SDS011;41031;44.750;11.308;2022-08-21T10:34:58;2.77;;;2.57;;
55134;SDS011;41031;44.750;11.308;2022-08-21T10:42:56;3.63;;;2.37;;
55134;SDS011;41031;44.750;11.308;2022-08-21T10:48:36;9.53;;;2.73;;
55134;SDS011;41031;44.750;11.308;2022-08-21T10:57:08;4.87;;;2.33;;
55134;SDS011;41031;44.750;11.308;2022-08-21T11:00:07;3.67;;;1.83;;
55134;SDS011;41031;44.750;11.308;2022-08-21T11:03:12;1.87;;;1.60;;
55134;SDS011;41031;44.750;11.308;2022-08-21T11:08:14;1.83;;;1.60;;
55134;SDS011;41031;44.750;11.308;2022-08-21T11:13:31;1.40;;;1.30;;
55134;SDS011;41031;44.750;11.308;2022-08-21T11:16:10;3.20;;;1.60;;
55134;SDS011;41031;44.750;11.308;2022-08-21T11:24:12;2.43;;;1.20;;
55134;SDS011;41031;44.750;11.308;2022-08-21T11:26:57;3.20;;;1.27;;
55134;SDS011;41031;44.750;11.308;2022-08-21T11:29:29;1.63;;;1.37;;
55134;SDS011;41031;44.750;11.308;2022-08-21T11:43:43;2.50;;;1.07;;
55134;SDS011;41031;44.750;11.308;2022-08-21T11:51:53;0.90;;;0.83;;
55134;SDS011;41031;44.750;11.308;2022-08-21T11:54:43;0.50;;;0.50;;
55134;SDS011;41031;44.750;11.308;2022-08-21T12:00:36;0.70;;;0.70;;
55134;SDS011;41031;44.750;11.308;2022-08-21T12:03:10;0.93;;;0.90;;
55134;SDS011;41031;44.750;11.308;2022-08-21T12:06:00;1.20;;;0.80;;
55134;SDS011;41031;44.750;11.308;2022-08-21T12:08:34;2.70;;;1.70;;
55134;SDS011;41031;44.750;11.308;2022-08-21T12:11:09;1.23;;;1.10;;
55134;SDS011;41031;44.750;11.308;2022-08-21T12:13:58;1.03;;;0.93;;
55134;SDS011;41031;44.750;11.308;2022-08-21T12:16:31;1.20;;;1.10;;
55134;SDS011;41031;44.750;11.308;2022-08-21T12:19:45;4.10;;;1.00;;
55134;SDS011;41031;44.750;11.308;2022-08-21T12:21:59;1.00;;;1.00;;
55134;SDS011;41031;44.750;11.308;2022-08-21T12:24:45;1.33;;;1.23;;
55134;SDS011;41031;44.750;11.308;2022-08-21T12:27:20;2.53;;;1.43;;
55134;SDS011;41031;44.750;11.308;2022-08-21T12:29:58;3.13;;;1.30;;
55134;SDS011;41031;44.750;11.308;2022-08-21T12:32:28;1.50;;;1.40;;
55134;SDS011;41031;44.750;11.308;2022-08-21T12:35:18;1.97;;;1.17;;
55134;SDS011;41031;44.750;11.308;2022-08-21T12:38:52;1.20;;;1.10;;
55134;SDS011;41031;44.750;11.308;2022-08-21T12:41:06;2.03;;;1.10;;
55134;SDS011;41031;44.750;11.308;2022-08-21T12:43:46;1.20;;;1.10;;
55134;SDS011;41031;44.750;11.308;2022-08-21T12:46:21;4.87;;;1.30;;
55134;SDS011;41031;44.750;11.308;2022-08-21T12:49:03;1.30;;;1.20;;
55134;SDS011;41031;44.750;11.308;2022-08-21T12:54:23;1.40;;;1.27;;
55134;SDS011;41031;44.750;11.308;2022-08-21T12:56:57;1.90;;;1.60;;
55134;SDS011;41031;44.750;11.308;2022-08-21T12:59:26;1.40;;;1.30;;
55134;SDS011;41031;44.750;11.308;2022-08-21T13:01:54;1.67;;;1.57;;
55134;SDS011;41031;44.750;11.308;2022-08-21T13:04:36;1.63;;;1.20;;
55134;SDS011;41031;44.750;11.308;2022-08-21T13:07:07;3.27;;;1.30;;
55134;SDS011;41031;44.750;11.308;2022-08-21T13:09:44;1.73;;;1.10;;
55134;SDS011;41031;44.750;11.308;2022-08-21T13:12:15;3.53;;;1.50;;
55134;SDS011;41031;44.750;11.308;2022-08-21T13:14:44;1.90;;;1.40;;
55134;SDS011;41031;44.750;11.308;2022-08-21T13:17:19;1.80;;;1.50;;
55134;SDS011;41031;44.750;11.308;2022-08-21T13:19:58;2.30;;;1.10;;
55134;SDS011;41031;44.750;11.308;2022-08-21T13:22:29;4.67;;;1.33;;
55134;SDS011;41031;44.750;11.308;2022-08-21T13:25:00;2.70;;;1.30;;
55134;SDS011;41031;44.750;11.308;2022-08-21T13:27:32;1.40;;;1.30;;
55134;SDS011;41031;44.750;11.308;2022-08-21T13:30:14;4.23;;;1.53;;
55134;SDS011;41031;44.750;11.308;2022-08-21T13:32:48;1.23;;;1.10;;
55134;SDS011;41031;44.750;11.308;2022-08-21T13:38:14;1.37;;;1.20;;
55134;SDS011;41031;44.750;11.308;2022-08-21T13:40:49;1.40;;;1.30;;
55134;SDS011;41031;44.750;11.308;2022-08-21T13:43:20;1.37;;;1.27;;
55134;SDS011;41031;44.750;11.308;2022-08-21T13:45:53;4.30;;;1.57;;
55134;SDS011;41031;44.750;11.308;2022-08-21T13:48:22;3.87;;;1.10;;
55134;SDS011;41031;44.750;11.308;2022-08-21T13:50:52;3.40;;;1.10;;
55134;SDS011;41031;44.750;11.308;2022-08-21T13:55:59;5.90;;;1.40;;
55134;SDS011;41031;44.750;11.308;2022-08-21T13:58:32;2.10;;;1.20;;
55134;SDS011;41031;44.750;11.308;2022-08-21T14:01:17;2.87;;;1.53;;
55134;SDS011;41031;44.750;11.308;2022-08-21T14:03:45;1.67;;;1.57;;
55134;SDS011;41031;44.750;11.308;2022-08-21T14:06:19;1.90;;;1.43;;
55134;SDS011;41031;44.750;11.308;2022-08-21T14:08:57;2.37;;;1.33;;
55134;SDS011;41031;44.750;11.308;2022-08-21T14:11:27;2.63;;;1.20;;
55134;SDS011;41031;44.750;11.308;2022-08-21T14:14:00;1.00;;;1.00;;
55134;SDS011;41031;44.750;11.308;2022-08-21T14:16:43;1.57;;;0.90;;
55134;SDS011;41031;44.750;11.308;2022-08-21T14:19:26;3.23;;;1.30;;
55134;SDS011;41031;44.750;11.308;2022-08-21T14:24:50;1.40;;;1.30;;
55134;SDS011;41031;44.750;11.308;2022-08-21T14:27:28;1.30;;;1.20;;
55134;SDS011;41031;44.750;11.308;2022-08-21T14:29:58;4.57;;;1.43;;
55134;SDS011;41031;44.750;11.308;2022-08-21T14:32:28;2.57;;;1.50;;
55134;SDS011;41031;44.750;11.308;2022-08-21T14:35:00;2.03;;;1.10;;
55134;SDS011;41031;44.750;11.308;2022-08-21T14:37:27;2.93;;;1.33;;
55134;SDS011;41031;44.750;11.308;2022-08-21T14:39:54;1.30;;;1.20;;
55134;SDS011;41031;44.750;11.308;2022-08-21T14:42:22;1.93;;;1.17;;
55134;SDS011;41031;44.750;11.308;2022-08-21T14:44:50;1.17;;;1.00;;
55134;SDS011;41031;44.750;11.308;2022-08-21T14:47:17;0.97;;;0.97;;
55134;SDS011;41031;44.750;11.308;2022-08-21T14:49:44;1.33;;;1.10;;
55134;SDS011;41031;44.750;11.308;2022-08-21T14:52:11;2.87;;;1.00;;
55134;SDS011;41031;44.750;11.308;2022-08-21T14:54:38;1.03;;;1.03;;
55134;SDS011;41031;44.750;11.308;2022-08-21T14:57:06;2.80;;;1.50;;
55134;SDS011;41031;44.750;11.308;2022-08-21T14:59:36;1.93;;;1.50;;
55134;SDS011;41031;44.750;11.308;2022-08-21T15:02:04;1.73;;;1.63;;
55134;SDS011;41031;44.750;11.308;2022-08-21T15:04:32;1.70;;;1.10;;
55134;SDS011;41031;44.750;11.308;2022-08-21T15:07:00;1.20;;;1.10;;
55134;SDS011;41031;44.750;11.308;2022-08-21T15:09:27;4.83;;;1.50;;
55134;SDS011;41031;44.750;11.308;2022-08-21T15:11:55;2.13;;;1.27;;
55134;SDS011;41031;44.750;11.308;2022-08-21T15:14:25;2.20;;;1.20;;
55134;SDS011;41031;44.750;11.308;2022-08-21T15:16:55;2.63;;;1.20;;
55134;SDS011;41031;44.750;11.308;2022-08-21T15:19:22;1.40;;;1.30;;
55134;SDS011;41031;44.750;11.308;2022-08-21T15:21:49;2.03;;;1.37;;
55134;SDS011;41031;44.750;11.308;2022-08-21T15:24:16;3.03;;;1.10;;
55134;SDS011;41031;44.750;11.308;2022-08-21T15:26:44;1.63;;;1.17;;
55134;SDS011;41031;44.750;11.308;2022-08-21T15:29:13;1.30;;;1.20;;
55134;SDS011;41031;44.750;11.308;2022-08-21T15:32:16;3.93;;;1.50;;
55134;SDS011;41031;44.750;11.308;2022-08-21T15:34:50;1.67;;;1.20;;
55134;SDS011;41031;44.750;11.308;2022-08-21T15:37:18;4.53;;;1.33;;
55134;SDS011;41031;44.750;11.308;2022-08-21T15:39:46;2.53;;;1.13;;
55134;SDS011;41031;44.750;11.308;2022-08-21T15:42:20;5.53;;;1.30;;
55134;SDS011;41031;44.750;11.308;2022-08-21T15:44:48;1.73;;;1.40;;
55134;SDS011;41031;44.750;11.308;2022-08-21T15:47:17;2.70;;;1.03;;
55134;SDS011;41031;44.750;11.308;2022-08-21T15:49:47;2.73;;;1.30;;
55134;SDS011;41031;44.750;11.308;2022-08-21T15:52:15;1.50;;;1.40;;
55134;SDS011;41031;44.750;11.308;2022-08-21T15:54:45;1.80;;;1.27;;
55134;SDS011;41031;44.750;11.308;2022-08-21T15:57:13;3.43;;;1.30;;
55134;SDS011;41031;44.750;11.308;2022-08-21T15:59:44;2.23;;;1.20;;
55134;SDS011;41031;44.750;11.308;2022-08-21T16:02:15;1.20;;;0.90;;
55134;SDS011;41031;44.750;11.308;2022-08-21T16:04:51;2.10;;;1.20;;
55134;SDS011;41031;44.750;11.308;2022-08-21T16:07:19;2.87;;;1.20;;
55134;SDS011;41031;44.750;11.308;2022-08-21T16:09:46;1.33;;;1.17;;
55134;SDS011;41031;44.750;11.308;2022-08-21T16:12:17;2.07;;;1.20;;
55134;SDS011;41031;44.750;11.308;2022-08-21T16:14:50;2.53;;;1.20;;
55134;SDS011;41031;44.750;11.308;2022-08-21T16:17:18;2.00;;;1.30;;
55134;SDS011;41031;44.750;11.308;2022-08-21T16:19:47;4.40;;;1.10;;
55134;SDS011;41031;44.750;11.308;2022-08-21T16:22:14;1.17;;;0.90;;
55134;SDS011;41031;44.750;11.308;2022-08-21T16:24:41;0.93;;;0.93;;
55134;SDS011;41031;44.750;11.308;2022-08-21T16:27:10;1.20;;;1.10;;
55134;SDS011;41031;44.750;11.308;2022-08-21T16:29:39;3.27;;;1.10;;
55134;SDS011;41031;44.750;11.308;2022-08-21T16:32:06;1.97;;;1.10;;
55134;SDS011;41031;44.750;11.308;2022-08-21T16:34:34;1.27;;;1.10;;
55134;SDS011;41031;44.750;11.308;2022-08-21T16:37:01;1.23;;;0.90;;